createdAt,value
2023-04-24T00:00:58.613Z,14.95
2023-04-24T00:03:32.564Z,16.37
2023-04-24T00:06:06.530Z,15.05
2023-04-24T00:08:41.569Z,13.90
2023-04-24T00:11:15.075Z,15.63
2023-04-24T00:13:48.492Z,14.00
2023-04-24T00:16:21.725Z,14.28
2023-04-24T00:18:54.672Z,22.67
2023-04-24T00:21:27.701Z,13.28
2023-04-24T00:24:01.095Z,12.65
2023-04-24T00:26:34.450Z,13.62
2023-04-24T00:29:08.040Z,11.97
2023-04-24T00:31:42.045Z,12.00
2023-04-24T00:34:15.147Z,11.53
2023-04-24T00:36:50.368Z,11.37
2023-04-24T00:39:24.266Z,12.47
2023-04-24T00:41:58.168Z,13.48
2023-04-24T00:44:31.563Z,13.45
2023-04-24T00:47:05.007Z,14.13
2023-04-24T00:49:38.311Z,14.10
2023-04-24T00:52:12.102Z,14.25
2023-04-24T00:54:46.499Z,13.22
2023-04-24T00:59:51.522Z,12.82
2023-04-24T01:02:26.022Z,11.73
2023-04-24T01:04:59.111Z,11.05
2023-04-24T01:07:32.992Z,10.05
2023-04-24T01:10:08.209Z,9.63
2023-04-24T01:12:42.042Z,10.13
2023-04-24T01:15:17.540Z,10.30
2023-04-24T01:17:51.292Z,9.40
2023-04-24T01:20:24.520Z,10.38
2023-04-24T01:22:58.603Z,9.87
2023-04-24T01:25:31.590Z,9.23
2023-04-24T01:28:05.504Z,9.70
2023-04-24T01:30:38.867Z,8.65
2023-04-24T01:33:11.970Z,8.68
2023-04-24T01:35:45.776Z,8.93
2023-04-24T01:38:20.239Z,8.35
2023-04-24T01:40:53.941Z,8.30
2023-04-24T01:43:27.502Z,8.65
2023-04-24T01:46:02.225Z,7.72
2023-04-24T01:48:37.557Z,8.05
2023-04-24T01:51:10.473Z,8.58
2023-04-24T01:53:43.745Z,8.68
2023-04-24T01:56:17.568Z,8.68
2023-04-24T01:58:54.865Z,9.53
2023-04-24T02:01:28.074Z,9.63
2023-04-24T02:04:01.302Z,9.78
2023-04-24T02:06:34.402Z,11.45
2023-04-24T02:09:07.712Z,11.12
2023-04-24T02:11:40.826Z,10.72
2023-04-24T02:14:14.005Z,10.58
2023-04-24T02:16:47.157Z,10.20
2023-04-24T02:19:20.308Z,9.30
2023-04-24T02:21:55.263Z,10.05
2023-04-24T02:24:28.178Z,10.10
2023-04-24T02:27:01.339Z,10.93
2023-04-24T02:29:35.096Z,9.60
2023-04-24T02:32:08.125Z,10.65
2023-04-24T02:34:42.125Z,10.60
2023-04-24T02:37:15.293Z,11.60
2023-04-24T02:39:49.179Z,11.57
2023-04-24T02:42:22.161Z,12.33
2023-04-24T02:44:55.295Z,10.98
2023-04-24T02:47:28.550Z,11.60
2023-04-24T02:50:01.619Z,10.90
2023-04-24T02:52:34.736Z,11.57
2023-04-24T02:55:09.284Z,12.47
2023-04-24T02:57:42.826Z,12.47
2023-04-24T03:00:17.102Z,15.00
2023-04-24T03:02:51.133Z,13.60
2023-04-24T03:05:25.816Z,12.88
2023-04-24T03:07:59.089Z,12.70
2023-04-24T03:10:33.598Z,12.53
2023-04-24T03:15:40.420Z,12.53
2023-04-24T03:18:13.496Z,11.48
2023-04-24T03:20:48.658Z,11.80
2023-04-24T03:23:21.867Z,11.08
2023-04-24T03:25:56.195Z,10.28
2023-04-24T03:28:29.153Z,10.63
2023-04-24T03:31:05.196Z,11.03
2023-04-24T03:33:40.218Z,10.35
2023-04-24T03:36:13.503Z,10.35
2023-04-24T03:38:46.976Z,12.13
2023-04-24T03:41:31.480Z,13.07
2023-04-24T03:44:18.161Z,10.55
2023-04-24T03:46:51.189Z,11.50
2023-04-24T03:49:24.791Z,10.72
2023-04-24T03:51:58.019Z,11.18
2023-04-24T03:57:06.085Z,32.38
2023-04-24T03:59:39.776Z,35.10
2023-04-24T04:02:17.398Z,24.72
2023-04-24T04:04:50.792Z,16.63
2023-04-24T04:07:24.039Z,14.10
2023-04-24T04:09:57.133Z,12.03
2023-04-24T04:12:30.316Z,13.28
2023-04-24T04:15:04.376Z,13.83
2023-04-24T04:17:39.382Z,13.30
2023-04-24T04:20:13.095Z,14.50
2023-04-24T04:22:46.530Z,15.08
2023-04-24T04:25:21.385Z,16.48
2023-04-24T04:27:55.075Z,18.57
2023-04-24T04:30:30.516Z,16.95
2023-04-24T04:33:05.384Z,18.42
2023-04-24T04:35:39.085Z,17.80
2023-04-24T04:38:12.630Z,19.37
2023-04-24T04:40:51.103Z,19.23
2023-04-24T04:43:25.479Z,20.68
2023-04-24T04:46:02.171Z,19.00
2023-04-24T04:48:39.764Z,18.62
2023-04-24T04:51:12.791Z,19.15
2023-04-24T04:53:46.169Z,19.02
2023-04-24T04:56:19.278Z,19.48
2023-04-24T04:58:52.312Z,19.20
2023-04-24T05:01:26.874Z,18.32
2023-04-24T05:04:00.899Z,19.02
2023-04-24T05:06:35.758Z,19.35
2023-04-24T05:09:10.937Z,18.75
2023-04-24T05:11:51.417Z,17.32
2023-04-24T05:14:24.723Z,19.98
2023-04-24T05:16:57.914Z,19.82
2023-04-24T05:19:33.110Z,21.52
2023-04-24T05:22:08.050Z,22.65
2023-04-24T05:24:42.709Z,20.77
2023-04-24T05:27:23.758Z,22.32
2023-04-24T05:29:56.890Z,26.43
2023-04-24T05:32:29.925Z,25.32
2023-04-24T05:35:03.051Z,25.12
2023-04-24T05:37:36.150Z,27.77
2023-04-24T05:40:10.702Z,28.77
2023-04-24T05:42:43.949Z,25.60
2023-04-24T05:45:18.044Z,26.65
2023-04-24T05:47:52.513Z,23.73
2023-04-24T05:50:25.635Z,27.70
2023-04-24T05:53:03.402Z,25.30
2023-04-24T05:55:39.131Z,24.75
2023-04-24T05:58:13.124Z,26.05
2023-04-24T06:00:47.746Z,27.85
2023-04-24T06:03:20.805Z,29.80
2023-04-24T06:05:54.630Z,30.65
2023-04-24T06:08:28.140Z,29.70
2023-04-24T06:11:03.914Z,31.10
2023-04-24T06:13:36.536Z,28.47
2023-04-24T06:16:20.371Z,27.50
2023-04-24T06:18:56.878Z,28.52
2023-04-24T06:21:30.465Z,28.52
2023-04-24T06:24:03.658Z,28.23
2023-04-24T06:26:38.376Z,28.67
2023-04-24T06:29:12.602Z,29.23
2023-04-24T06:31:45.602Z,26.95
2023-04-24T06:34:18.647Z,32.08
2023-04-24T06:36:51.646Z,27.73
2023-04-24T06:39:24.808Z,28.45
2023-04-24T06:41:57.828Z,28.65
2023-04-24T06:44:31.106Z,31.82
2023-04-24T06:47:04.030Z,30.30
2023-04-24T06:49:39.071Z,28.40
2023-04-24T06:52:12.051Z,28.45
2023-04-24T06:54:45.076Z,27.32
2023-04-24T06:57:18.153Z,27.85
2023-04-24T06:59:50.909Z,26.52
2023-04-24T07:02:23.882Z,27.80
2023-04-24T07:04:56.723Z,26.77
2023-04-24T07:07:29.847Z,25.02
2023-04-24T07:10:05.012Z,24.23
2023-04-24T07:12:38.813Z,24.65
2023-04-24T07:15:12.850Z,24.65
2023-04-24T07:17:46.482Z,20.77
2023-04-24T07:20:19.555Z,19.73
2023-04-24T07:22:53.114Z,20.10
2023-04-24T07:25:26.367Z,20.35
2023-04-24T07:27:59.883Z,19.80
2023-04-24T07:30:34.402Z,17.83
2023-04-24T07:33:08.216Z,16.80
2023-04-24T07:35:41.486Z,16.95
2023-04-24T07:38:14.377Z,15.85
2023-04-24T07:40:48.754Z,16.23
2023-04-24T07:43:24.937Z,17.40
2023-04-24T07:45:58.071Z,14.65
2023-04-24T07:48:31.345Z,15.45
2023-04-24T07:51:04.338Z,14.23
2023-04-24T07:53:37.440Z,12.63
2023-04-24T07:56:10.310Z,12.50
2023-04-24T07:58:43.222Z,10.93
2023-04-24T08:01:16.036Z,10.20
2023-04-24T08:03:49.371Z,11.10
2023-04-24T08:06:22.350Z,6.97
2023-04-24T08:08:55.260Z,8.53
2023-04-24T08:11:28.807Z,7.60
2023-04-24T08:14:02.046Z,6.63
2023-04-24T08:16:36.287Z,8.13
2023-04-24T08:21:40.953Z,6.30
2023-04-24T08:24:14.158Z,6.75
2023-04-24T08:26:47.042Z,5.72
2023-04-24T08:29:20.172Z,9.95
2023-04-24T08:31:53.168Z,6.28
2023-04-24T08:34:26.742Z,5.65
2023-04-24T08:36:59.641Z,4.20
2023-04-24T08:39:33.161Z,4.67
2023-04-24T08:42:08.556Z,4.05
2023-04-24T08:44:41.587Z,3.47
2023-04-24T08:47:16.265Z,3.67
2023-04-24T08:49:51.463Z,5.42
2023-04-24T08:52:25.187Z,6.87
2023-04-24T08:54:58.729Z,3.60
2023-04-24T08:57:32.346Z,3.90
2023-04-24T09:00:08.226Z,2.87
2023-04-24T09:02:49.873Z,3.87
2023-04-24T09:05:28.554Z,5.42
2023-04-24T09:08:03.177Z,3.42
2023-04-24T09:10:37.670Z,6.00
2023-04-24T09:13:11.701Z,4.75
2023-04-24T09:15:45.272Z,5.37
2023-04-24T09:18:18.080Z,4.07
2023-04-24T09:21:08.777Z,15.43
2023-04-24T09:23:42.119Z,4.28
2023-04-24T09:26:16.219Z,6.42
2023-04-24T09:28:49.227Z,6.03
2023-04-24T09:31:24.095Z,3.50
2023-04-24T09:34:08.457Z,7.35
2023-04-24T09:39:18.708Z,9.78
2023-04-24T09:41:59.154Z,5.87
2023-04-24T09:44:32.204Z,6.47
2023-04-24T09:47:05.256Z,4.83
2023-04-24T09:49:40.119Z,4.83
2023-04-24T09:52:14.095Z,6.03
2023-04-24T09:54:51.704Z,4.05
2023-04-24T09:57:24.647Z,6.58
2023-04-24T09:59:57.374Z,11.50
2023-04-24T10:02:30.874Z,4.72
2023-04-24T10:05:03.785Z,4.67
2023-04-24T10:07:37.124Z,5.87
2023-04-24T10:10:10.539Z,6.03
2023-04-24T10:12:43.802Z,7.28
2023-04-24T10:15:19.007Z,7.92
2023-04-24T10:17:56.337Z,6.12
2023-04-24T10:20:34.755Z,5.25
2023-04-24T10:23:08.077Z,3.95
2023-04-24T10:25:41.150Z,2.98
2023-04-24T10:28:14.107Z,3.50
2023-04-24T10:30:47.226Z,6.58
2023-04-24T10:33:20.739Z,6.62
2023-04-24T10:35:54.565Z,2.90
2023-04-24T10:38:29.002Z,4.00
2023-04-24T10:41:14.704Z,8.33
2023-04-24T10:43:50.023Z,4.25
2023-04-24T10:46:23.959Z,4.53
2023-04-24T10:48:57.983Z,7.72
2023-04-24T10:51:55.872Z,6.70
2023-04-24T10:54:38.323Z,6.35
2023-04-24T10:57:32.169Z,4.72
2023-04-24T11:00:23.219Z,3.67
2023-04-24T11:02:56.778Z,4.15
2023-04-24T11:05:55.107Z,6.67
2023-04-24T11:08:31.740Z,7.85
2023-04-24T11:11:11.675Z,5.78
2023-04-24T11:14:02.015Z,3.00
2023-04-24T11:16:56.894Z,2.70
2023-04-24T11:22:05.226Z,3.95
2023-04-24T11:24:52.536Z,3.80
2023-04-24T11:27:27.046Z,4.17
2023-04-24T11:30:04.930Z,3.22
2023-04-24T11:32:41.106Z,2.75
2023-04-24T11:35:24.713Z,2.70
2023-04-24T11:40:32.943Z,3.27
2023-04-24T11:43:08.261Z,3.90
2023-04-24T11:45:41.702Z,3.27
2023-04-24T11:48:14.481Z,3.90
2023-04-24T11:50:49.229Z,2.50
2023-04-24T11:53:23.487Z,4.87
2023-04-24T11:55:56.266Z,2.33
2023-04-24T11:58:29.324Z,3.85
2023-04-24T12:01:02.668Z,2.42
2023-04-24T12:03:35.959Z,3.17
2023-04-24T12:06:11.711Z,2.30
2023-04-24T12:08:44.640Z,2.50
2023-04-24T12:11:20.149Z,3.08
2023-04-24T12:13:52.929Z,4.53
2023-04-24T12:16:28.486Z,4.08
2023-04-24T12:19:02.355Z,8.05
2023-04-24T12:21:35.323Z,4.67
2023-04-24T12:24:09.871Z,4.12
2023-04-24T12:26:45.779Z,5.85
2023-04-24T12:29:24.736Z,4.00
2023-04-24T12:31:57.513Z,2.40
2023-04-24T12:34:30.914Z,3.40
2023-04-24T12:37:14.288Z,4.30
2023-04-24T12:40:11.153Z,2.20
2023-04-24T12:42:50.243Z,3.95
2023-04-24T12:45:24.783Z,2.92
2023-04-24T12:47:57.646Z,2.33
2023-04-24T12:50:30.601Z,2.42
2023-04-24T12:53:03.780Z,2.70
2023-04-24T12:55:37.364Z,2.08
2023-04-24T12:58:10.752Z,2.30
2023-04-24T13:00:44.846Z,1.75
2023-04-24T13:03:18.028Z,3.25
2023-04-24T13:05:50.966Z,3.40
2023-04-24T13:08:24.131Z,2.87
2023-04-24T13:10:56.916Z,2.02
2023-04-24T13:13:29.886Z,2.15
2023-04-24T13:16:02.939Z,2.05
2023-04-24T13:18:35.903Z,1.87
2023-04-24T13:21:08.863Z,2.20
2023-04-24T13:23:42.758Z,1.87
2023-04-24T13:26:16.166Z,1.75
2023-04-24T13:28:49.096Z,2.95
2023-04-24T13:31:22.216Z,1.80
2023-04-24T13:33:55.763Z,1.82
2023-04-24T13:36:28.796Z,3.70
2023-04-24T13:39:01.677Z,2.90
2023-04-24T13:41:37.515Z,3.40
2023-04-24T13:44:10.619Z,2.42
2023-04-24T13:46:45.790Z,3.05
2023-04-24T13:49:19.213Z,2.12
2023-04-24T13:51:52.499Z,2.17
2023-04-24T13:54:27.347Z,2.42
2023-04-24T13:57:02.452Z,1.92
2023-04-24T13:59:35.386Z,3.50
2023-04-24T14:02:08.828Z,3.05
2023-04-24T14:04:41.997Z,3.45
2023-04-24T14:07:15.308Z,2.10
2023-04-24T14:09:48.262Z,2.30
2023-04-24T14:12:22.208Z,2.80
2023-04-24T14:14:55.094Z,2.90
2023-04-24T14:17:28.246Z,2.58
2023-04-24T14:20:01.739Z,3.33
2023-04-24T14:22:34.991Z,2.45
2023-04-24T14:25:09.042Z,2.58
2023-04-24T14:30:16.607Z,4.17
2023-04-24T14:32:51.057Z,3.67
2023-04-24T14:35:24.617Z,3.45
2023-04-24T14:37:58.099Z,3.60
2023-04-24T14:40:52.799Z,3.42
2023-04-24T14:43:07.665Z,3.02
2023-04-24T14:45:42.647Z,4.92
2023-04-24T14:48:17.270Z,3.80
2023-04-24T14:50:50.517Z,3.50
2023-04-24T14:53:23.692Z,5.10
2023-04-24T14:55:57.256Z,2.93
2023-04-24T14:58:30.389Z,2.60
2023-04-24T15:01:03.288Z,5.40
2023-04-24T15:03:36.361Z,3.77
2023-04-24T15:06:09.533Z,3.33
2023-04-24T15:08:43.357Z,3.85
2023-04-24T15:11:16.322Z,18.25
2023-04-24T15:13:49.452Z,5.00
2023-04-24T15:16:22.510Z,4.67
2023-04-24T15:18:55.640Z,8.60
2023-04-24T15:21:28.637Z,5.72
2023-04-24T15:24:01.945Z,5.45
2023-04-24T15:26:35.426Z,5.35
2023-04-24T15:29:08.452Z,5.17
2023-04-24T15:31:41.528Z,5.95
2023-04-24T15:34:14.776Z,4.72
2023-04-24T15:36:47.775Z,3.95
2023-04-24T15:39:22.400Z,3.17
2023-04-24T15:41:55.589Z,3.42
2023-04-24T15:44:28.645Z,4.72
2023-04-24T15:47:03.457Z,3.83
2023-04-24T15:49:36.186Z,6.05
2023-04-24T15:52:11.220Z,3.08
2023-04-24T15:54:44.436Z,3.12
2023-04-24T15:57:17.529Z,4.53
2023-04-24T15:59:50.917Z,3.87
2023-04-24T16:02:23.962Z,4.58
2023-04-24T16:04:57.247Z,6.03
2023-04-24T16:07:30.206Z,4.03
2023-04-24T16:10:03.231Z,4.83
2023-04-24T16:12:36.390Z,4.83
2023-04-24T16:15:10.280Z,4.45
2023-04-24T16:17:44.324Z,5.28
2023-04-24T16:20:17.306Z,4.53
2023-04-24T16:22:50.325Z,4.62
2023-04-24T16:25:23.621Z,5.92
2023-04-24T16:27:57.291Z,4.40
2023-04-24T16:30:30.175Z,5.12
2023-04-24T16:33:04.758Z,5.20
2023-04-24T16:35:39.178Z,7.42
2023-04-24T16:38:12.335Z,7.78
2023-04-24T16:40:45.877Z,8.48
2023-04-24T16:43:20.031Z,7.62
2023-04-24T16:48:26.049Z,6.28
2023-04-24T16:50:58.929Z,5.50
2023-04-24T16:53:31.911Z,6.90
2023-04-24T16:56:05.527Z,4.30
2023-04-24T16:58:39.454Z,4.28
2023-04-24T17:01:13.010Z,4.00
2023-04-24T17:03:47.094Z,3.83
2023-04-24T17:06:20.165Z,4.00
2023-04-24T17:08:53.047Z,4.47
2023-04-24T17:11:26.316Z,3.55
2023-04-24T17:14:00.939Z,2.85
2023-04-24T17:16:34.035Z,3.33
2023-04-24T17:19:08.338Z,3.98
2023-04-24T17:21:41.512Z,3.02
2023-04-24T17:24:14.349Z,2.90
2023-04-24T17:26:47.377Z,4.17
2023-04-24T17:29:20.322Z,3.90
2023-04-24T17:31:53.763Z,9.70
2023-04-24T17:34:26.793Z,3.17
2023-04-24T17:36:59.935Z,2.77
2023-04-24T17:39:33.003Z,2.72
2023-04-24T17:42:06.765Z,4.37
2023-04-24T17:44:40.025Z,9.10
2023-04-24T17:47:12.948Z,6.03
2023-04-24T17:49:46.245Z,9.13
2023-04-24T17:52:19.328Z,11.95
2023-04-24T17:54:52.209Z,12.88
2023-04-24T17:57:25.338Z,8.05
2023-04-24T17:59:58.215Z,4.30
2023-04-24T18:02:31.501Z,2.70
2023-04-24T18:05:04.871Z,2.65
2023-04-24T18:07:39.529Z,2.37
2023-04-24T18:10:12.511Z,2.17
2023-04-24T18:12:45.742Z,2.65
2023-04-24T18:15:19.083Z,1.90
2023-04-24T18:17:52.513Z,2.20
2023-04-24T18:20:26.248Z,1.62
2023-04-24T18:23:00.146Z,1.80
2023-04-24T18:25:33.806Z,2.10
2023-04-24T18:28:07.004Z,2.35
2023-04-24T18:30:39.917Z,2.17
2023-04-24T18:33:12.849Z,2.00
2023-04-24T18:35:45.999Z,2.02
2023-04-24T18:38:18.836Z,1.90
2023-04-24T18:40:51.812Z,1.50
2023-04-24T18:43:24.675Z,1.62
2023-04-24T18:45:58.133Z,2.10
2023-04-24T18:48:31.501Z,2.00
2023-04-24T18:51:04.734Z,1.98
2023-04-24T18:53:38.614Z,1.85
2023-04-24T18:56:13.344Z,1.72
2023-04-24T18:58:46.882Z,2.10
2023-04-24T19:01:20.362Z,1.85
2023-04-24T19:03:53.561Z,2.42
2023-04-24T19:06:26.717Z,2.40
2023-04-24T19:09:00.166Z,2.23
2023-04-24T19:11:33.483Z,2.22
2023-04-24T19:14:07.717Z,1.70
2023-04-24T19:16:41.831Z,1.67
2023-04-24T19:19:14.592Z,2.05
2023-04-24T19:21:47.630Z,2.42
2023-04-24T19:24:21.530Z,2.30
2023-04-24T19:26:54.396Z,1.90
2023-04-24T19:29:27.592Z,2.02
2023-04-24T19:32:00.421Z,2.25
2023-04-24T19:34:34.930Z,1.70
2023-04-24T19:37:08.319Z,2.25
2023-04-24T19:39:41.581Z,2.02
2023-04-24T19:42:14.889Z,2.20
2023-04-24T19:44:48.019Z,2.85
2023-04-24T19:47:21.033Z,2.10
2023-04-24T19:49:54.136Z,2.12
2023-04-24T19:52:28.069Z,1.87
2023-04-24T19:55:02.065Z,2.35
2023-04-24T20:00:08.411Z,2.58
2023-04-24T20:05:13.790Z,1.95
2023-04-24T20:10:19.860Z,2.05
2023-04-24T20:12:53.252Z,2.02
2023-04-24T20:15:26.146Z,1.80
2023-04-24T20:17:58.938Z,1.90
2023-04-24T20:20:31.944Z,1.77
2023-04-24T20:23:04.972Z,2.20
2023-04-24T20:25:38.711Z,1.77
2023-04-24T20:28:12.249Z,2.20
2023-04-24T20:30:45.451Z,2.12
2023-04-24T20:33:18.485Z,2.90
2023-04-24T20:35:52.705Z,2.27
2023-04-24T20:38:26.434Z,2.17
2023-04-24T20:41:00.437Z,2.30
2023-04-24T20:43:33.466Z,2.35
2023-04-24T20:46:07.387Z,2.60
2023-04-24T20:48:40.374Z,3.12
2023-04-24T20:51:14.028Z,3.52
2023-04-24T20:53:48.960Z,3.12
2023-04-24T20:56:21.860Z,4.12
2023-04-24T20:58:57.156Z,4.45
2023-04-24T21:01:30.702Z,3.02
2023-04-24T21:04:04.355Z,3.62
2023-04-24T21:06:37.599Z,3.42
2023-04-24T21:09:10.911Z,3.27
2023-04-24T21:11:44.044Z,2.95
2023-04-24T21:14:18.192Z,2.67
2023-04-24T21:16:51.200Z,2.75
2023-04-24T21:19:24.374Z,2.83
2023-04-24T21:21:57.454Z,2.50
2023-04-24T21:24:30.285Z,2.80
2023-04-24T21:27:03.774Z,3.47
2023-04-24T21:29:37.736Z,3.17
2023-04-24T21:32:10.931Z,3.10
2023-04-24T21:34:44.240Z,3.73
2023-04-24T21:37:17.207Z,3.10
2023-04-24T21:39:49.955Z,2.80
2023-04-24T21:42:23.257Z,2.80
2023-04-24T21:44:56.208Z,2.60
2023-04-24T21:47:29.382Z,3.20
2023-04-24T21:50:02.405Z,3.00
2023-04-24T21:52:35.545Z,2.70
2023-04-24T21:55:09.495Z,2.70
2023-04-24T21:57:42.601Z,3.27
2023-04-24T22:00:16.991Z,2.60
2023-04-24T22:05:22.693Z,2.83
2023-04-24T22:07:56.520Z,1.95
2023-04-24T22:10:29.742Z,2.40
2023-04-24T22:13:03.077Z,2.67
2023-04-24T22:15:37.097Z,2.65
2023-04-24T22:18:11.812Z,2.60
2023-04-24T22:20:45.108Z,2.70
2023-04-24T22:23:18.085Z,2.45
2023-04-24T22:25:51.531Z,2.80
2023-04-24T22:30:57.797Z,2.95
2023-04-24T22:33:30.979Z,2.67
2023-04-24T22:36:03.955Z,3.17
2023-04-24T22:38:37.096Z,3.00
2023-04-24T22:41:10.696Z,2.85
2023-04-24T22:43:43.742Z,3.00
2023-04-24T22:46:16.732Z,2.85
2023-04-24T22:48:50.168Z,3.33
2023-04-24T22:51:23.193Z,2.72
2023-04-24T22:53:57.556Z,3.10
2023-04-24T22:56:31.832Z,2.40
2023-04-24T22:59:05.133Z,2.90
2023-04-24T23:01:38.269Z,2.50
2023-04-24T23:04:11.361Z,2.52
2023-04-24T23:06:45.059Z,2.83
2023-04-24T23:09:18.215Z,3.85
2023-04-24T23:11:51.549Z,3.52
2023-04-24T23:14:25.117Z,4.03
2023-04-24T23:16:58.791Z,4.03
2023-04-24T23:19:31.852Z,3.40
2023-04-24T23:22:04.881Z,3.70
2023-04-24T23:24:39.558Z,3.35
2023-04-24T23:27:12.474Z,4.10
2023-04-24T23:29:46.117Z,4.40
2023-04-24T23:32:18.997Z,4.80
2023-04-24T23:34:52.044Z,4.75
2023-04-24T23:37:25.095Z,4.22
2023-04-24T23:39:58.144Z,4.50
2023-04-24T23:42:31.462Z,4.72
2023-04-24T23:45:05.053Z,5.28
2023-04-24T23:47:39.506Z,4.92
2023-04-24T23:50:13.088Z,5.65
2023-04-24T23:52:46.100Z,5.63
2023-04-24T23:55:19.068Z,5.62
2023-04-24T23:57:51.855Z,5.78
